createdAt,value
2019-05-01T00:00:41.060Z,998.13
2019-05-01T00:01:41.159Z,998.14
2019-05-01T00:02:41.038Z,998.13
2019-05-01T00:03:41.567Z,998.07
2019-05-01T00:04:41.566Z,998.12
2019-05-01T00:05:41.005Z,998.11
2019-05-01T00:06:41.024Z,998.07
2019-05-01T00:07:40.992Z,998.03
2019-05-01T00:08:40.975Z,998.10
2019-05-01T00:09:40.965Z,998.02
2019-05-01T00:10:40.952Z,998.04
2019-05-01T00:11:40.973Z,998.08
2019-05-01T00:12:40.940Z,998.06
2019-05-01T00:13:40.929Z,998.09
2019-05-01T00:14:40.914Z,998.05
2019-05-01T00:15:40.902Z,998.04
2019-05-01T00:16:40.920Z,998.06
2019-05-01T00:17:40.880Z,998.02
2019-05-01T00:18:41.638Z,998.08
2019-05-01T00:19:40.860Z,998.08
2019-05-01T00:20:40.850Z,998.07
2019-05-01T00:21:40.873Z,998.06
2019-05-01T00:22:40.828Z,998.06
2019-05-01T00:23:40.818Z,997.97
2019-05-01T00:24:40.807Z,997.99
2019-05-01T00:25:40.803Z,998.00
2019-05-01T00:26:40.825Z,997.94
2019-05-01T00:27:40.782Z,997.97
2019-05-01T00:28:40.775Z,997.93
2019-05-01T00:29:40.764Z,997.94
2019-05-01T00:30:40.750Z,997.99
2019-05-01T00:31:40.743Z,997.98
2019-05-01T00:32:40.751Z,997.96
2019-05-01T00:33:40.720Z,997.97
2019-05-01T00:34:40.704Z,997.97
2019-05-01T00:35:40.692Z,997.96
2019-05-01T00:36:40.689Z,997.89
2019-05-01T00:37:40.698Z,997.91
2019-05-01T00:38:40.667Z,997.93
2019-05-01T00:39:40.650Z,997.84
2019-05-01T00:40:40.639Z,997.83
2019-05-01T00:41:40.628Z,997.81
2019-05-01T00:42:40.649Z,997.81
2019-05-01T00:43:40.617Z,997.84
2019-05-01T00:44:40.605Z,997.79
2019-05-01T00:45:40.593Z,997.73
2019-05-01T00:46:41.546Z,997.78
2019-05-01T00:47:40.594Z,997.79
2019-05-01T00:48:40.565Z,997.75
2019-05-01T00:49:40.546Z,997.79
2019-05-01T00:50:41.085Z,997.71
2019-05-01T00:51:40.533Z,997.79
2019-05-01T00:52:41.452Z,997.75
2019-05-01T00:53:41.453Z,997.77
2019-05-01T00:54:41.452Z,997.70
2019-05-01T00:55:40.481Z,997.77
2019-05-01T00:56:40.517Z,997.76
2019-05-01T00:57:40.490Z,997.76
2019-05-01T00:58:40.459Z,997.75
2019-05-01T00:59:40.449Z,997.76
2019-05-01T01:00:43.215Z,997.78
2019-05-01T01:01:40.431Z,997.75
2019-05-01T01:02:40.437Z,997.80
2019-05-01T01:03:41.033Z,997.76
2019-05-01T01:04:40.388Z,997.69
2019-05-01T01:05:40.386Z,997.64
2019-05-01T01:06:40.376Z,997.59
2019-05-01T01:07:40.385Z,997.58
2019-05-01T01:08:40.352Z,997.63
2019-05-01T01:09:40.343Z,997.57
2019-05-01T01:10:40.335Z,997.62
2019-05-01T01:11:40.323Z,997.60
2019-05-01T01:12:40.333Z,997.66
2019-05-01T01:13:40.301Z,997.67
2019-05-01T01:14:40.291Z,997.66
2019-05-01T01:15:40.281Z,997.62
2019-05-01T01:16:40.269Z,997.66
2019-05-01T01:17:40.281Z,997.60
2019-05-01T01:18:40.252Z,997.58
2019-05-01T01:19:41.093Z,997.68
2019-05-01T01:20:40.230Z,997.68
2019-05-01T01:21:40.240Z,997.68
2019-05-01T01:22:40.236Z,997.65
2019-05-01T01:23:40.197Z,997.59
2019-05-01T01:24:40.210Z,997.56
2019-05-01T01:25:41.586Z,997.59
2019-05-01T01:26:40.166Z,997.56
2019-05-01T01:27:40.159Z,997.51
2019-05-01T01:28:41.027Z,997.53
2019-05-01T01:29:40.132Z,997.53
2019-05-01T01:30:40.625Z,997.50
2019-05-01T01:31:40.114Z,997.48
2019-05-01T01:32:40.129Z,997.48
2019-05-01T01:33:41.023Z,997.43
2019-05-01T01:34:40.083Z,997.53
2019-05-01T01:35:40.079Z,997.47
2019-05-01T01:36:40.062Z,997.54
2019-05-01T01:37:40.052Z,997.44
2019-05-01T01:38:40.069Z,997.49
2019-05-01T01:39:40.031Z,997.45
2019-05-01T01:40:40.019Z,997.43
2019-05-01T01:41:40.008Z,997.51
2019-05-01T01:42:39.999Z,997.46
2019-05-01T01:43:40.019Z,997.41
2019-05-01T01:44:39.976Z,997.42
2019-05-01T01:45:39.966Z,997.40
2019-05-01T01:46:39.958Z,997.38
2019-05-01T01:47:39.945Z,997.36
2019-05-01T01:48:40.796Z,997.34
2019-05-01T01:49:39.931Z,997.32
2019-05-01T01:50:39.914Z,997.32
2019-05-01T01:51:39.903Z,997.34
2019-05-01T01:52:40.574Z,997.34
2019-05-01T01:53:39.913Z,997.35
2019-05-01T01:54:40.671Z,997.34
2019-05-01T01:55:39.861Z,997.40
2019-05-01T01:56:39.887Z,997.35
2019-05-01T01:57:39.842Z,997.36
2019-05-01T01:58:42.196Z,997.34
2019-05-01T01:59:39.819Z,997.38
2019-05-01T02:00:40.790Z,997.37
2019-05-01T02:01:39.798Z,997.36
2019-05-01T02:02:39.789Z,997.42
2019-05-01T02:03:39.778Z,997.41
2019-05-01T02:04:39.804Z,997.39
2019-05-01T02:05:39.759Z,997.31
2019-05-01T02:06:39.748Z,997.32
2019-05-01T02:07:39.745Z,997.28
2019-05-01T02:08:40.697Z,997.28
2019-05-01T02:09:39.766Z,997.25
2019-05-01T02:10:43.061Z,997.28
2019-05-01T02:11:39.783Z,997.22
2019-05-01T02:12:39.693Z,997.25
2019-05-01T02:13:39.676Z,997.24
2019-05-01T02:14:39.701Z,997.24
2019-05-01T02:15:39.667Z,997.26
2019-05-01T02:16:39.652Z,997.22
2019-05-01T02:17:39.640Z,997.22
2019-05-01T02:18:39.631Z,997.18
2019-05-01T02:19:39.639Z,997.18
2019-05-01T02:20:39.599Z,997.21
2019-05-01T02:21:39.631Z,997.23
2019-05-01T02:22:39.587Z,997.23
2019-05-01T02:23:39.576Z,997.19
2019-05-01T02:24:40.236Z,997.17
2019-05-01T02:25:39.548Z,997.11
2019-05-01T02:26:39.536Z,997.14
2019-05-01T02:27:39.526Z,997.17
2019-05-01T02:28:39.514Z,997.19
2019-05-01T02:29:39.536Z,997.11
2019-05-01T02:30:39.547Z,997.13
2019-05-01T02:31:39.484Z,997.17
2019-05-01T02:32:39.524Z,997.16
2019-05-01T02:33:39.507Z,997.14
2019-05-01T02:34:39.482Z,997.12
2019-05-01T02:35:39.449Z,997.14
2019-05-01T02:36:39.456Z,997.03
2019-05-01T02:37:39.432Z,997.05
2019-05-01T02:38:39.420Z,997.01
2019-05-01T02:39:39.430Z,996.99
2019-05-01T02:40:39.391Z,996.98
2019-05-01T02:41:46.420Z,997.01
2019-05-01T02:42:41.220Z,996.98
2019-05-01T02:43:39.367Z,996.94
2019-05-01T02:44:40.250Z,996.95
2019-05-01T02:45:39.344Z,996.91
2019-05-01T02:46:39.327Z,996.95
2019-05-01T02:47:39.326Z,996.96
2019-05-01T02:48:39.319Z,996.98
2019-05-01T02:49:39.341Z,996.99
2019-05-01T02:50:39.284Z,996.94
2019-05-01T02:51:39.280Z,996.93
2019-05-01T02:52:39.272Z,996.91
2019-05-01T02:53:39.257Z,996.95
2019-05-01T02:54:39.280Z,997.04
2019-05-01T02:55:39.875Z,996.95
2019-05-01T02:56:39.229Z,996.92
2019-05-01T02:57:39.218Z,996.98
2019-05-01T02:58:39.201Z,996.97
2019-05-01T02:59:39.219Z,996.94
2019-05-01T03:00:39.270Z,996.97
2019-05-01T03:01:47.305Z,997.00
2019-05-01T03:02:40.179Z,997.00
2019-05-01T03:03:39.151Z,996.92
2019-05-01T03:04:39.167Z,996.99
2019-05-01T03:05:39.127Z,996.95
2019-05-01T03:06:39.118Z,996.92
2019-05-01T03:07:39.111Z,996.88
2019-05-01T03:08:39.131Z,996.93
2019-05-01T03:09:39.117Z,996.89
2019-05-01T03:10:39.080Z,996.85
2019-05-01T03:11:39.070Z,996.81
2019-05-01T03:12:39.061Z,996.87
2019-05-01T03:13:39.043Z,996.79
2019-05-01T03:14:39.063Z,996.88
2019-05-01T03:15:39.026Z,996.83
2019-05-01T03:16:39.031Z,996.78
2019-05-01T03:17:39.005Z,996.80
2019-05-01T03:18:38.997Z,996.74
2019-05-01T03:19:39.035Z,996.75
2019-05-01T03:20:38.981Z,996.75
2019-05-01T03:21:38.960Z,996.73
2019-05-01T03:22:38.980Z,996.77
2019-05-01T03:23:39.889Z,996.69
2019-05-01T03:24:38.941Z,996.66
2019-05-01T03:25:38.947Z,996.73
2019-05-01T03:26:38.978Z,996.66
2019-05-01T03:27:38.905Z,996.67
2019-05-01T03:28:39.806Z,996.65
2019-05-01T03:29:38.876Z,996.70
2019-05-01T03:30:39.907Z,996.71
2019-05-01T03:31:38.861Z,996.68
2019-05-01T03:32:38.898Z,996.69
2019-05-01T03:33:38.856Z,996.76
2019-05-01T03:34:38.823Z,996.78
2019-05-01T03:35:38.842Z,996.71
2019-05-01T03:36:38.813Z,996.70
2019-05-01T03:37:38.809Z,996.74
2019-05-01T03:38:38.781Z,996.74
2019-05-01T03:39:39.440Z,996.79
2019-05-01T03:40:38.791Z,996.74
2019-05-01T03:41:38.828Z,996.78
2019-05-01T03:42:38.739Z,996.74
2019-05-01T03:43:38.741Z,996.75
2019-05-01T03:44:39.357Z,996.74
2019-05-01T03:45:38.748Z,996.74
2019-05-01T03:46:38.704Z,996.72
2019-05-01T03:47:38.689Z,996.70
2019-05-01T03:48:38.679Z,996.72
2019-05-01T03:49:38.667Z,996.70
2019-05-01T03:50:38.685Z,996.72
2019-05-01T03:51:38.644Z,996.66
2019-05-01T03:52:38.634Z,996.80
2019-05-01T03:53:38.631Z,996.74
2019-05-01T03:54:38.656Z,996.75
2019-05-01T03:55:38.632Z,996.80
2019-05-01T03:56:40.348Z,996.77
2019-05-01T03:57:40.443Z,996.78
2019-05-01T03:58:38.573Z,996.74
2019-05-01T03:59:38.572Z,996.82
2019-05-01T04:00:38.619Z,996.85
2019-05-01T04:01:38.540Z,996.78
2019-05-01T04:02:38.535Z,996.76
2019-05-01T04:03:39.437Z,996.73
2019-05-01T04:04:38.516Z,996.77
2019-05-01T04:05:38.526Z,996.78
2019-05-01T04:06:38.494Z,996.77
2019-05-01T04:07:38.483Z,996.70
2019-05-01T04:08:38.467Z,996.70
2019-05-01T04:09:38.535Z,996.71
2019-05-01T04:10:38.487Z,996.78
2019-05-01T04:11:38.435Z,996.80
2019-05-01T04:12:38.431Z,996.71
2019-05-01T04:13:38.423Z,996.69
2019-05-01T04:14:39.371Z,996.76
2019-05-01T04:15:38.423Z,996.75
2019-05-01T04:16:38.392Z,996.72
2019-05-01T04:17:39.023Z,996.67
2019-05-01T04:18:38.370Z,996.72
2019-05-01T04:19:38.360Z,996.76
2019-05-01T04:20:38.378Z,996.71
2019-05-01T04:21:38.382Z,996.74
2019-05-01T04:22:39.138Z,996.75
2019-05-01T04:23:38.321Z,996.73
2019-05-01T04:24:38.320Z,996.74
2019-05-01T04:25:38.338Z,996.70
2019-05-01T04:26:38.286Z,996.68
2019-05-01T04:27:39.159Z,996.75
2019-05-01T04:28:38.266Z,996.69
2019-05-01T04:29:38.254Z,996.71
2019-05-01T04:30:38.266Z,996.67
2019-05-01T04:31:38.262Z,996.74
2019-05-01T04:32:52.200Z,996.76
2019-05-01T04:33:39.213Z,996.67
2019-05-01T04:34:38.202Z,996.69
2019-05-01T04:35:38.230Z,996.77
2019-05-01T04:36:38.185Z,996.72
2019-05-01T04:37:38.230Z,996.70
2019-05-01T04:38:38.153Z,996.71
2019-05-01T04:39:38.152Z,996.71
2019-05-01T04:40:38.146Z,996.68
2019-05-01T04:41:38.154Z,996.68
2019-05-01T04:42:38.120Z,996.65
2019-05-01T04:43:38.109Z,996.67
2019-05-01T04:44:38.100Z,996.70
2019-05-01T04:45:38.090Z,996.68
2019-05-01T04:46:38.127Z,996.72
2019-05-01T04:47:38.067Z,996.73
2019-05-01T04:48:38.678Z,996.72
2019-05-01T04:49:38.051Z,996.73
2019-05-01T04:50:38.032Z,996.79
2019-05-01T04:51:38.046Z,996.75
2019-05-01T04:52:38.013Z,996.83
2019-05-01T04:53:38.006Z,996.73
2019-05-01T04:54:38.574Z,996.78
2019-05-01T04:55:37.981Z,996.77
2019-05-01T04:56:38.001Z,996.73
2019-05-01T04:57:38.492Z,996.81
2019-05-01T04:58:37.958Z,996.82
2019-05-01T04:59:37.970Z,996.87
2019-05-01T05:00:37.931Z,996.82
2019-05-01T05:01:38.491Z,996.83
2019-05-01T05:02:38.590Z,996.81
2019-05-01T05:03:38.488Z,996.84
2019-05-01T05:04:39.487Z,996.88
2019-05-01T05:05:37.877Z,996.92
2019-05-01T05:06:37.915Z,996.88
2019-05-01T05:07:37.854Z,996.92
2019-05-01T05:08:37.845Z,996.90
2019-05-01T05:09:37.833Z,996.87
2019-05-01T05:10:37.824Z,996.87
2019-05-01T05:11:37.843Z,996.85
2019-05-01T05:12:37.883Z,996.88
2019-05-01T05:13:37.793Z,996.99
2019-05-01T05:14:37.790Z,996.88
2019-05-01T05:15:37.773Z,996.97
2019-05-01T05:16:37.791Z,996.92
2019-05-01T05:17:37.874Z,996.94
2019-05-01T05:18:37.741Z,996.93
2019-05-01T05:19:37.728Z,996.95
2019-05-01T05:20:37.739Z,996.95
2019-05-01T05:21:37.735Z,996.95
2019-05-01T05:22:37.697Z,997.00
2019-05-01T05:23:37.685Z,996.97
2019-05-01T05:24:37.676Z,996.97
2019-05-01T05:25:37.665Z,996.99
2019-05-01T05:26:37.698Z,996.93
2019-05-01T05:27:37.642Z,996.95
2019-05-01T05:28:37.635Z,996.87
2019-05-01T05:29:37.624Z,996.91
2019-05-01T05:30:37.615Z,996.86
2019-05-01T05:31:38.125Z,996.91
2019-05-01T05:32:37.593Z,996.90
2019-05-01T05:33:38.243Z,996.94
2019-05-01T05:34:37.563Z,996.94
2019-05-01T05:35:38.654Z,996.95
2019-05-01T05:36:37.581Z,996.98
2019-05-01T05:37:38.044Z,996.95
2019-05-01T05:38:38.261Z,997.01
2019-05-01T05:39:37.518Z,996.97
2019-05-01T05:40:37.511Z,996.95
2019-05-01T05:41:37.519Z,996.96
2019-05-01T05:42:37.488Z,997.03
2019-05-01T05:43:37.478Z,996.97
2019-05-01T05:44:37.471Z,996.92
2019-05-01T05:45:37.459Z,997.00
2019-05-01T05:46:37.467Z,996.95
2019-05-01T05:47:37.437Z,996.94
2019-05-01T05:48:37.456Z,996.88
2019-05-01T05:49:37.415Z,996.90
2019-05-01T05:50:37.406Z,996.91
2019-05-01T05:51:37.414Z,996.91
2019-05-01T05:52:37.383Z,996.89
2019-05-01T05:53:37.370Z,996.97
2019-05-01T05:54:37.389Z,996.93
2019-05-01T05:55:38.823Z,996.87
2019-05-01T05:56:37.342Z,996.94
2019-05-01T05:57:37.351Z,996.97
2019-05-01T05:58:37.322Z,996.98
2019-05-01T05:59:37.313Z,996.93
2019-05-01T06:00:39.032Z,996.98
2019-05-01T06:01:37.286Z,996.94
2019-05-01T06:02:37.306Z,996.91
2019-05-01T06:03:37.259Z,996.94
2019-05-01T06:04:37.257Z,996.89
2019-05-01T06:05:37.495Z,996.92
2019-05-01T06:06:37.237Z,996.95
2019-05-01T06:07:37.247Z,996.93
2019-05-01T06:08:37.213Z,996.92
2019-05-01T06:09:37.208Z,997.00
2019-05-01T06:10:38.055Z,996.95
2019-05-01T06:11:37.175Z,996.96
2019-05-01T06:12:41.581Z,996.93
2019-05-01T06:13:38.165Z,996.98
2019-05-01T06:14:37.672Z,997.00
2019-05-01T06:15:41.291Z,996.98
2019-05-01T06:16:40.365Z,996.95
2019-05-01T06:17:37.679Z,996.96
2019-05-01T06:18:39.314Z,996.92
2019-05-01T06:19:37.091Z,996.96
2019-05-01T06:20:37.543Z,996.99
2019-05-01T06:21:37.070Z,996.94
2019-05-01T06:22:40.733Z,996.99
2019-05-01T06:23:38.079Z,997.00
2019-05-01T06:24:40.512Z,997.04
2019-05-01T06:25:38.037Z,997.04
2019-05-01T06:26:39.255Z,996.99
2019-05-01T06:27:37.886Z,996.96
2019-05-01T06:28:36.996Z,997.00
2019-05-01T06:29:37.309Z,997.00
2019-05-01T06:30:36.975Z,997.01
2019-05-01T06:31:36.966Z,997.04
2019-05-01T06:32:39.699Z,997.02
2019-05-01T06:33:44.076Z,997.03
2019-05-01T06:34:38.693Z,997.03
2019-05-01T06:35:38.182Z,997.05
2019-05-01T06:36:36.911Z,997.02
2019-05-01T06:37:37.032Z,997.02
2019-05-01T06:38:37.803Z,997.04
2019-05-01T06:39:37.690Z,997.05
2019-05-01T06:40:36.869Z,997.03
2019-05-01T06:41:42.483Z,997.00
2019-05-01T06:42:38.689Z,997.01
2019-05-01T06:43:36.848Z,997.05
2019-05-01T06:44:39.285Z,996.99
2019-05-01T06:45:36.817Z,997.04
2019-05-01T06:46:36.806Z,997.02
2019-05-01T06:47:38.208Z,997.01
2019-05-01T06:48:37.808Z,996.95
2019-05-01T06:49:36.776Z,997.02
2019-05-01T06:50:41.075Z,997.03
2019-05-01T06:51:37.345Z,996.99
2019-05-01T06:52:38.168Z,997.01
2019-05-01T06:53:39.994Z,997.01
2019-05-01T06:54:37.016Z,996.98
2019-05-01T06:55:36.715Z,997.01
2019-05-01T06:56:37.612Z,997.00
2019-05-01T06:57:38.285Z,996.95
2019-05-01T06:58:37.899Z,996.93
2019-05-01T06:59:36.670Z,996.96
2019-05-01T07:00:39.164Z,996.91
2019-05-01T07:01:37.639Z,996.93
2019-05-01T07:02:36.942Z,997.00
2019-05-01T07:03:40.706Z,996.95
2019-05-01T07:04:38.489Z,996.96
2019-05-01T07:05:36.677Z,996.96
2019-05-01T07:06:36.617Z,997.01
2019-05-01T07:07:36.586Z,996.97
2019-05-01T07:08:39.433Z,996.95
2019-05-01T07:09:36.557Z,996.95
2019-05-01T07:10:43.486Z,996.99
2019-05-01T07:11:38.315Z,997.05
2019-05-01T07:12:36.530Z,996.96
2019-05-01T07:13:40.058Z,996.92
2019-05-01T07:14:36.512Z,996.92
2019-05-01T07:15:36.494Z,996.86
2019-05-01T07:16:37.961Z,996.87
2019-05-01T07:17:36.481Z,996.91
2019-05-01T07:18:36.492Z,996.93
2019-05-01T07:19:40.289Z,996.90
2019-05-01T07:20:36.440Z,996.93
2019-05-01T07:21:36.431Z,996.89
2019-05-01T07:22:37.067Z,996.92
2019-05-01T07:23:37.439Z,996.89
2019-05-01T07:24:36.407Z,996.93
2019-05-01T07:25:39.372Z,996.91
2019-05-01T07:26:36.386Z,996.91
2019-05-01T07:27:36.367Z,996.89
2019-05-01T07:28:36.416Z,996.85
2019-05-01T07:29:39.978Z,996.85
2019-05-01T07:30:38.269Z,996.97
2019-05-01T07:31:36.325Z,996.88
2019-05-01T07:32:40.607Z,996.81
2019-05-01T07:33:36.895Z,996.86
2019-05-01T07:34:36.293Z,996.84
2019-05-01T07:35:36.673Z,996.86
2019-05-01T07:36:36.818Z,996.88
2019-05-01T07:37:36.287Z,996.88
2019-05-01T07:38:38.208Z,996.80
2019-05-01T07:39:36.249Z,996.88
2019-05-01T07:40:36.231Z,996.86
2019-05-01T07:41:37.747Z,996.84
2019-05-01T07:42:36.210Z,996.86
2019-05-01T07:43:36.230Z,996.79
2019-05-01T07:44:36.268Z,996.83
2019-05-01T07:45:38.979Z,996.90
2019-05-01T07:46:37.168Z,996.88
2019-05-01T07:47:36.158Z,996.85
2019-05-01T07:48:41.306Z,996.82
2019-05-01T07:49:37.187Z,996.90
2019-05-01T07:50:36.124Z,996.88
2019-05-01T07:51:37.775Z,996.89
2019-05-01T07:52:37.106Z,996.91
2019-05-01T07:53:36.096Z,996.91
2019-05-01T07:54:37.794Z,996.91
2019-05-01T07:55:37.081Z,996.87
2019-05-01T07:56:36.063Z,996.90
2019-05-01T07:57:39.684Z,996.89
2019-05-01T07:58:37.041Z,996.88
2019-05-01T07:59:36.061Z,996.94
2019-05-01T08:00:37.020Z,996.91
2019-05-01T08:01:37.011Z,996.90
2019-05-01T08:02:36.000Z,996.88
2019-05-01T08:03:37.979Z,996.85
2019-05-01T08:04:37.014Z,996.87
2019-05-01T08:05:35.969Z,996.88
2019-05-01T08:06:35.962Z,996.91
2019-05-01T08:07:35.982Z,996.89
2019-05-01T08:08:39.581Z,996.86
2019-05-01T08:09:37.859Z,996.86
2019-05-01T08:10:35.952Z,996.90
2019-05-01T08:11:39.244Z,996.90
2019-05-01T08:12:36.895Z,996.92
2019-05-01T08:13:36.362Z,996.90
2019-05-01T08:14:35.897Z,996.98
2019-05-01T08:15:35.862Z,996.98
2019-05-01T08:16:37.811Z,996.90
2019-05-01T08:17:36.842Z,996.92
2019-05-01T08:18:36.243Z,996.91
2019-05-01T08:19:39.326Z,996.96
2019-05-01T08:20:35.812Z,996.98
2019-05-01T08:21:35.801Z,996.95
2019-05-01T08:22:37.408Z,996.86
2019-05-01T08:23:35.774Z,996.90
2019-05-01T08:24:35.800Z,996.87
2019-05-01T08:25:35.751Z,996.88
2019-05-01T08:26:39.751Z,996.89
2019-05-01T08:27:36.739Z,996.88
2019-05-01T08:28:35.730Z,996.92
2019-05-01T08:29:37.012Z,996.92
2019-05-01T08:30:36.707Z,997.00
2019-05-01T08:31:35.726Z,997.01
2019-05-01T08:32:39.124Z,996.89
2019-05-01T08:33:36.694Z,996.95
2019-05-01T08:34:48.006Z,997.00
2019-05-01T08:35:37.645Z,996.97
2019-05-01T08:36:35.644Z,996.90
2019-05-01T08:37:35.636Z,996.96
2019-05-01T08:38:35.655Z,996.95
2019-05-01T08:39:39.549Z,996.92
2019-05-01T08:40:37.332Z,996.89
2019-05-01T08:41:37.700Z,996.97
2019-05-01T08:42:37.649Z,996.88
2019-05-01T08:44:40.747Z,996.94
2019-05-01T08:45:42.389Z,996.97
2019-05-01T08:46:40.191Z,996.91
2019-05-01T08:47:40.295Z,996.92
2019-05-01T08:48:40.887Z,996.93
2019-05-01T08:49:42.265Z,996.89
2019-05-01T08:50:41.005Z,996.86
2019-05-01T08:51:40.154Z,996.92
2019-05-01T08:52:42.649Z,996.89
2019-05-01T08:53:40.952Z,996.87
2019-05-01T08:54:40.086Z,996.78
2019-05-01T08:55:45.202Z,996.78
2019-05-01T08:56:43.637Z,996.84
2019-05-01T08:57:39.912Z,996.78
2019-05-01T08:58:40.127Z,996.86
2019-05-01T08:59:39.890Z,996.83
2019-05-01T09:00:41.265Z,996.74
2019-05-01T09:01:40.262Z,996.82
2019-05-01T09:02:41.552Z,996.76
2019-05-01T09:03:40.792Z,996.70
2019-05-01T09:04:39.847Z,996.78
2019-05-01T09:05:39.951Z,996.68
2019-05-01T09:06:43.825Z,996.72
2019-05-01T09:07:41.012Z,996.58
2019-05-01T09:12:22.517Z,996.67
2019-05-01T09:13:23.801Z,996.71
2019-05-01T09:14:22.483Z,996.70
2019-05-01T09:15:23.317Z,996.70
2019-05-01T09:16:23.376Z,996.70
2019-05-01T09:17:24.056Z,996.68
2019-05-01T09:18:22.445Z,996.67
2019-05-01T09:19:22.416Z,996.65
2019-05-01T09:20:22.413Z,996.68
2019-05-01T09:21:22.453Z,996.62
2019-05-01T09:22:22.383Z,996.61
2019-05-01T09:23:22.865Z,996.59
2019-05-01T09:24:23.056Z,996.60
2019-05-01T09:25:23.353Z,996.57
2019-05-01T09:26:22.369Z,996.55
2019-05-01T09:27:24.047Z,996.60
2019-05-01T09:28:24.129Z,996.61
2019-05-01T09:29:22.355Z,996.58
2019-05-01T09:30:26.771Z,996.55
2019-05-01T09:31:22.330Z,996.62
2019-05-01T09:32:22.280Z,996.57
2019-05-01T09:33:26.118Z,996.61
2019-05-01T09:34:23.967Z,996.61
2019-05-01T09:35:22.247Z,996.58
2019-05-01T09:36:23.468Z,996.59
2019-05-01T09:37:22.228Z,996.56
2019-05-01T09:38:22.226Z,996.61
2019-05-01T09:39:22.235Z,996.54
2019-05-01T09:40:22.195Z,996.56
2019-05-01T09:41:23.471Z,996.58
2019-05-01T09:42:23.707Z,996.55
2019-05-01T09:43:23.090Z,996.50
2019-05-01T09:44:22.153Z,996.51
2019-05-01T09:45:22.152Z,996.53
2019-05-01T09:46:22.164Z,996.46
2019-05-01T09:47:22.141Z,996.44
2019-05-01T09:48:22.116Z,996.45
2019-05-01T09:49:23.082Z,996.44
2019-05-01T09:50:25.944Z,996.46
2019-05-01T09:51:23.141Z,996.47
2019-05-01T09:52:23.429Z,996.44
2019-05-01T09:53:22.060Z,996.42
2019-05-01T09:54:22.040Z,996.41
2019-05-01T09:55:23.424Z,996.39
2019-05-01T09:56:22.979Z,996.42
2019-05-01T09:57:22.061Z,996.41
2019-05-01T09:58:22.008Z,996.45
2019-05-01T09:59:21.998Z,996.41
2019-05-01T10:00:21.997Z,996.43
2019-05-01T10:01:24.132Z,996.30
2019-05-01T10:02:22.986Z,996.38
2019-05-01T10:03:21.947Z,996.33
2019-05-01T10:04:25.333Z,996.31
2019-05-01T10:05:28.886Z,996.31
2019-05-01T10:06:23.513Z,996.32
2019-05-01T10:07:24.016Z,996.32
2019-05-01T10:08:22.895Z,996.27
2019-05-01T10:09:21.885Z,996.25
2019-05-01T10:10:24.888Z,996.26
2019-05-01T10:11:22.888Z,996.24
2019-05-01T10:12:21.882Z,996.26
2019-05-01T10:13:22.392Z,996.25
2019-05-01T10:14:22.640Z,996.25
2019-05-01T10:15:21.820Z,996.27
2019-05-01T10:16:21.879Z,996.31
2019-05-01T10:17:22.520Z,996.27
2019-05-01T10:18:21.799Z,996.28
2019-05-01T10:19:21.779Z,996.19
2019-05-01T10:20:21.770Z,996.23
2019-05-01T10:21:22.433Z,996.23
2019-05-01T10:22:22.767Z,996.20
2019-05-01T10:23:21.799Z,996.27
2019-05-01T10:24:21.727Z,996.27
2019-05-01T10:25:21.718Z,996.19
2019-05-01T10:26:23.975Z,996.23
2019-05-01T10:27:21.717Z,996.19
2019-05-01T10:28:21.691Z,996.15
2019-05-01T10:29:25.900Z,996.12
2019-05-01T10:30:22.663Z,996.25
2019-05-01T10:31:23.521Z,996.18
2019-05-01T10:32:23.192Z,996.16
2019-05-01T10:33:21.682Z,996.13
2019-05-01T10:34:23.913Z,996.15
2019-05-01T10:35:21.603Z,996.16
2019-05-01T10:36:22.134Z,996.22
2019-05-01T10:37:23.647Z,996.11
2019-05-01T10:38:21.603Z,996.00
2019-05-01T10:39:22.431Z,996.02
2019-05-01T10:40:22.417Z,996.05
2019-05-01T10:41:21.549Z,995.98
2019-05-01T10:42:21.580Z,996.04
2019-05-01T10:43:21.552Z,996.00
2019-05-01T10:44:21.509Z,995.96
2019-05-01T10:45:21.499Z,996.11
2019-05-01T10:46:22.167Z,996.07
2019-05-01T10:47:21.487Z,996.00
2019-05-01T10:48:21.998Z,996.05
2019-05-01T10:49:21.457Z,996.03
2019-05-01T10:50:21.447Z,996.00
2019-05-01T10:51:21.442Z,996.03
2019-05-01T10:52:21.452Z,996.00
2019-05-01T10:53:21.444Z,995.95
2019-05-01T10:54:21.404Z,995.96
2019-05-01T10:55:22.214Z,995.87
2019-05-01T10:56:21.389Z,995.86
2019-05-01T10:57:21.420Z,995.84
2019-05-01T10:58:21.413Z,995.80
2019-05-01T10:59:21.459Z,995.85
2019-05-01T11:00:21.345Z,995.90
2019-05-01T11:01:21.332Z,995.84
2019-05-01T11:02:21.321Z,995.83
2019-05-01T11:03:21.356Z,995.79
2019-05-01T11:04:21.341Z,995.87
2019-05-01T11:05:21.290Z,995.82
2019-05-01T11:06:21.279Z,995.79
2019-05-01T11:07:22.090Z,995.81
2019-05-01T11:08:22.089Z,995.74
2019-05-01T11:09:21.248Z,995.77
2019-05-01T11:10:21.241Z,995.73
2019-05-01T11:11:21.453Z,995.68
2019-05-01T11:12:21.879Z,995.74
2019-05-01T11:13:21.227Z,995.68
2019-05-01T11:14:21.197Z,995.70
2019-05-01T11:15:21.186Z,995.75
2019-05-01T11:16:21.986Z,995.77
2019-05-01T11:17:21.930Z,995.73
2019-05-01T11:18:21.729Z,995.66
2019-05-01T11:19:21.146Z,995.75
2019-05-01T11:20:21.125Z,995.67
2019-05-01T11:21:21.136Z,995.62
2019-05-01T11:22:21.112Z,995.75
2019-05-01T11:23:21.214Z,995.68
2019-05-01T11:24:21.096Z,995.77
2019-05-01T11:25:21.081Z,995.71
2019-05-01T11:26:22.033Z,995.70
2019-05-01T11:27:21.063Z,995.72
2019-05-01T11:28:21.071Z,995.61
2019-05-01T11:29:21.067Z,995.61
2019-05-01T11:30:21.084Z,995.60
2019-05-01T11:31:21.027Z,995.61
2019-05-01T11:32:21.672Z,995.58
2019-05-01T11:33:23.819Z,995.53
2019-05-01T11:34:21.031Z,995.58
2019-05-01T11:35:20.978Z,995.58
2019-05-01T11:36:20.996Z,995.55
2019-05-01T11:37:20.958Z,995.51
2019-05-01T11:38:21.179Z,995.57
2019-05-01T11:39:20.936Z,995.50
2019-05-01T11:40:21.046Z,995.53
2019-05-01T11:41:20.908Z,995.56
2019-05-01T11:42:20.947Z,995.52
2019-05-01T11:43:20.916Z,995.53
2019-05-01T11:44:20.892Z,995.58
2019-05-01T11:45:20.865Z,995.54
2019-05-01T11:46:20.906Z,995.61
2019-05-01T11:47:20.867Z,995.58
2019-05-01T11:48:20.841Z,995.49
2019-05-01T11:49:20.854Z,995.55
2019-05-01T11:50:20.953Z,995.46
2019-05-01T11:51:20.839Z,995.48
2019-05-01T11:52:21.105Z,995.45
2019-05-01T11:53:21.123Z,995.45
2019-05-01T11:54:20.903Z,995.47
2019-05-01T11:55:21.201Z,995.54
2019-05-01T11:56:21.264Z,995.43
2019-05-01T11:57:20.740Z,995.45
2019-05-01T11:58:20.866Z,995.46
2019-05-01T11:59:20.832Z,995.36
2019-05-01T12:00:20.742Z,995.46
2019-05-01T12:01:20.700Z,995.44
2019-05-01T12:02:20.687Z,995.41
2019-05-01T12:03:20.681Z,995.39
2019-05-01T12:04:20.861Z,995.40
2019-05-01T12:05:20.655Z,995.39
2019-05-01T12:06:22.912Z,995.34
2019-05-01T12:07:20.628Z,995.32
2019-05-01T12:08:20.632Z,995.34
2019-05-01T12:09:20.637Z,995.43
2019-05-01T12:10:20.606Z,995.37
2019-05-01T12:11:20.589Z,995.38
2019-05-01T12:12:20.582Z,995.38
2019-05-01T12:13:20.631Z,995.34
2019-05-01T12:14:20.623Z,995.33
2019-05-01T12:15:20.573Z,995.29
2019-05-01T12:16:20.543Z,995.26
2019-05-01T12:17:20.534Z,995.24
2019-05-01T12:18:20.521Z,995.21
2019-05-01T12:19:20.542Z,995.30
2019-05-01T12:20:20.493Z,995.27
2019-05-01T12:21:20.495Z,995.35
2019-05-01T12:22:20.472Z,995.29
2019-05-01T12:23:20.472Z,995.21
2019-05-01T12:24:20.479Z,995.29
2019-05-01T12:25:20.443Z,995.28
2019-05-01T12:26:20.430Z,995.26
2019-05-01T12:27:20.444Z,995.26
2019-05-01T12:28:20.428Z,995.24
2019-05-01T12:29:20.428Z,995.29
2019-05-01T12:30:20.398Z,995.21
2019-05-01T12:31:20.402Z,995.23
2019-05-01T12:32:20.367Z,995.26
2019-05-01T12:33:20.358Z,995.25